Time;durP1;ratioP1;P1;durP2;ratioP2;P2;SDS_P1;SDS_P2;PMS_P1;PMS_P2;Temp;Humidity;BMP_temperature;BMP_pressure;BME280_temperature;BME280_humidity;BME280_pressure;Samples;Min_cycle;Max_cycle;Signal;HPM_P1;HPM_P2
2021/01/10 00:01:56;;;;;;;23.77;4.00;;;;;;;;;;5068421;28;20241;-71
2021/01/10 00:04:22;;;;;;;17.00;4.80;;;;;;;;;;5078692;28;20184;-72
2021/01/10 00:06:47;;;;;;;18.27;4.87;;;;;;;;;;5070643;28;20570;-73
2021/01/10 00:09:12;;;;;;;14.37;4.47;;;;;;;;;;5060118;28;20604;-71
2021/01/10 00:11:42;;;;;;;15.63;4.63;;;;;;;;;;5070053;28;20184;-72
2021/01/10 00:14:07;;;;;;;25.17;6.37;;;;;;;;;;5077425;28;20202;-71
2021/01/10 00:16:37;;;;;;;16.30;4.43;;;;;;;;;;5088470;28;20184;-71
2021/01/10 00:19:02;;;;;;;16.37;5.33;;;;;;;;;;5076868;28;20234;-71
2021/01/10 00:21:32;;;;;;;16.73;6.77;;;;;;;;;;5079369;28;20219;-71
2021/01/10 00:23:58;;;;;;;23.17;9.47;;;;;;;;;;5074205;28;20230;-72
2021/01/10 00:26:23;;;;;;;22.13;7.20;;;;;;;;;;5077881;28;20691;-71
2021/01/10 00:28:48;;;;;;;22.13;6.10;;;;;;;;;;5080460;28;20632;-71
2021/01/10 00:31:14;;;;;;;16.33;5.43;;;;;;;;;;5051976;28;20537;-71
2021/01/10 00:33:39;;;;;;;20.60;5.80;;;;;;;;;;5079511;28;20203;-71
2021/01/10 00:36:04;;;;;;;25.23;8.00;;;;;;;;;;5075917;28;20188;-71
2021/01/10 00:38:30;;;;;;;18.63;5.27;;;;;;;;;;5083765;28;20220;-71
2021/01/10 00:40:55;;;;;;;18.03;4.07;;;;;;;;;;5076717;28;20222;-72
2021/01/10 00:43:20;;;;;;;14.60;4.70;;;;;;;;;;5066346;28;20188;-72
2021/01/10 00:45:46;;;;;;;20.97;4.80;;;;;;;;;;5077376;28;20263;-72
2021/01/10 00:48:11;;;;;;;11.50;5.03;;;;;;;;;;5087524;28;20572;-72
2021/01/10 00:50:36;;;;;;;14.90;4.67;;;;;;;;;;5075906;28;22281;-72
2021/01/10 00:53:02;;;;;;;14.90;4.40;;;;;;;;;;5068857;28;20188;-71
2021/01/10 00:55:27;;;;;;;19.33;4.07;;;;;;;;;;5080991;28;20987;-71
2021/01/10 00:57:53;;;;;;;17.67;3.90;;;;;;;;;;5084063;28;20220;-71
2021/01/10 01:00:19;;;;;;;19.17;3.43;;;;;;;;;;5087754;28;20230;-71
2021/01/10 01:02:47;;;;;;;15.17;3.73;;;;;;;;;;5076466;28;20231;-71
2021/01/10 01:05:12;;;;;;;37.43;12.00;;;;;;;;;;5087989;28;20611;-71
2021/01/10 01:07:37;;;;;;;30.60;9.50;;;;;;;;;;5077825;28;20267;-72
2021/01/10 01:10:03;;;;;;;50.00;18.97;;;;;;;;;;5087677;28;20267;-71
2021/01/10 01:12:29;;;;;;;48.97;19.77;;;;;;;;;;5078798;28;20208;-72
2021/01/10 01:14:54;;;;;;;19.13;7.73;;;;;;;;;;5085068;28;20223;-72
2021/01/10 01:17:19;;;;;;;16.03;5.60;;;;;;;;;;5079502;28;20180;-71
2021/01/10 01:19:45;;;;;;;20.50;4.23;;;;;;;;;;5086013;28;20208;-72
2021/01/10 01:22:10;;;;;;;14.27;3.73;;;;;;;;;;5074433;28;20268;-72
2021/01/10 01:24:36;;;;;;;14.97;4.77;;;;;;;;;;5085476;28;20188;-72
2021/01/10 01:27:01;;;;;;;20.50;7.00;;;;;;;;;;5082861;28;20558;-71
2021/01/10 01:29:26;;;;;;;19.43;4.60;;;;;;;;;;5077488;28;20227;-71
2021/01/10 01:31:51;;;;;;;17.17;4.60;;;;;;;;;;5087234;28;20271;-71
2021/01/10 01:34:17;;;;;;;27.67;9.53;;;;;;;;;;5077716;28;20593;-72
2021/01/10 01:36:42;;;;;;;25.50;9.40;;;;;;;;;;5083198;28;20249;-71
2021/01/10 01:39:07;;;;;;;27.47;9.83;;;;;;;;;;5076995;28;20200;-71
2021/01/10 01:41:37;;;;;;;33.70;14.03;;;;;;;;;;5084005;28;20202;-72
2021/01/10 01:44:04;;;;;;;26.73;11.53;;;;;;;;;;5077246;28;20706;-72
2021/01/10 01:46:32;;;;;;;32.00;12.10;;;;;;;;;;5085409;28;20172;-72
2021/01/10 01:48:59;;;;;;;39.30;15.43;;;;;;;;;;5077417;28;20172;-72
2021/01/10 01:51:25;;;;;;;22.33;9.00;;;;;;;;;;5085098;28;20267;-72
2021/01/10 01:53:51;;;;;;;31.37;13.77;;;;;;;;;;5075355;28;22370;-72
2021/01/10 01:56:17;;;;;;;25.87;9.53;;;;;;;;;;5087790;28;20261;-72
2021/01/10 01:59:00;;;;;;;23.47;8.33;;;;;;;;;;5078149;28;20236;-72
2021/01/10 02:01:30;;;;;;;13.87;4.77;;;;;;;;;;5083248;28;20259;-72
2021/01/10 02:04:09;;;;;;;16.63;5.40;;;;;;;;;;5078514;28;20204;-72
2021/01/10 02:07:14;;;;;;;15.70;6.23;;;;;;;;;;5086851;28;20223;-71
2021/01/10 02:09:41;;;;;;;15.57;4.30;;;;;;;;;;5075024;28;20184;-72
2021/01/10 02:12:10;;;;;;;12.77;4.10;;;;;;;;;;5088347;28;20195;-72
2021/01/10 02:14:43;;;;;;;12.83;4.67;;;;;;;;;;5074670;28;20188;-72
2021/01/10 02:17:10;;;;;;;11.60;4.47;;;;;;;;;;5085795;28;20191;-72
2021/01/10 02:20:01;;;;;;;10.10;4.57;;;;;;;;;;5084681;28;20207;-71
2021/01/10 02:22:32;;;;;;;12.17;4.77;;;;;;;;;;5083703;28;20187;-71
2021/01/10 02:24:58;;;;;;;19.40;4.83;;;;;;;;;;5081922;28;20184;-72
2021/01/10 02:27:23;;;;;;;15.47;4.63;;;;;;;;;;5082060;28;20581;-71
2021/01/10 02:29:50;;;;;;;22.80;4.47;;;;;;;;;;5085547;28;20188;-74
2021/01/10 02:32:18;;;;;;;11.97;4.03;;;;;;;;;;5076987;28;20331;-72
2021/01/10 02:34:45;;;;;;;12.90;4.40;;;;;;;;;;5087328;28;20180;-72
2021/01/10 02:37:20;;;;;;;20.57;4.93;;;;;;;;;;5082126;28;20280;-71
2021/01/10 02:40:13;;;;;;;12.80;4.33;;;;;;;;;;5082692;28;20248;-71
2021/01/10 02:43:13;;;;;;;16.57;4.60;;;;;;;;;;5037281;28;20200;-71
2021/01/10 02:45:41;;;;;;;18.87;4.23;;;;;;;;;;5030720;28;20204;-71
2021/01/10 02:48:08;;;;;;;13.13;4.70;;;;;;;;;;5080065;28;20180;-71
2021/01/10 02:50:34;;;;;;;20.90;4.47;;;;;;;;;;5090940;28;20238;-71
2021/01/10 02:53:00;;;;;;;17.80;4.80;;;;;;;;;;5080029;28;20589;-71
2021/01/10 02:55:25;;;;;;;20.43;4.60;;;;;;;;;;5069654;28;20644;-71
2021/01/10 02:57:58;;;;;;;19.13;5.40;;;;;;;;;;5082113;28;20201;-70
2021/01/10 03:00:26;;;;;;;21.60;5.20;;;;;;;;;;5067054;28;20188;-71
2021/01/10 03:02:53;;;;;;;9.97;4.67;;;;;;;;;;5078036;28;20192;-70
2021/01/10 03:05:19;;;;;;;15.80;5.27;;;;;;;;;;5071068;28;20180;-71
2021/01/10 03:07:45;;;;;;;17.43;5.03;;;;;;;;;;5060550;28;20184;-71
2021/01/10 03:10:12;;;;;;;16.30;4.90;;;;;;;;;;5089425;28;20658;-72
2021/01/10 03:12:38;;;;;;;18.97;4.73;;;;;;;;;;5080975;28;20223;-71
2021/01/10 03:15:05;;;;;;;16.23;4.63;;;;;;;;;;5068616;28;20605;-71
2021/01/10 03:17:41;;;;;;;19.43;5.07;;;;;;;;;;5087332;28;20188;-71
2021/01/10 03:20:09;;;;;;;12.80;4.90;;;;;;;;;;5085204;28;20216;-71
2021/01/10 03:22:35;;;;;;;13.90;4.63;;;;;;;;;;5088196;28;20184;-71
2021/01/10 03:25:00;;;;;;;15.20;4.40;;;;;;;;;;5060164;28;20199;-71
2021/01/10 03:27:26;;;;;;;21.90;5.57;;;;;;;;;;5086195;28;20184;-71
2021/01/10 03:29:51;;;;;;;18.40;7.30;;;;;;;;;;5061065;28;20191;-71
2021/01/10 03:32:17;;;;;;;20.13;6.13;;;;;;;;;;5090788;28;20184;-71
2021/01/10 03:34:42;;;;;;;20.60;6.73;;;;;;;;;;5079013;28;20533;-71
2021/01/10 03:37:07;;;;;;;17.37;6.57;;;;;;;;;;5087434;28;20565;-71
2021/01/10 03:39:34;;;;;;;22.30;5.90;;;;;;;;;;5078936;28;20585;-71
2021/01/10 03:41:59;;;;;;;23.53;5.80;;;;;;;;;;5088589;28;20244;-71
2021/01/10 03:44:25;;;;;;;17.40;6.33;;;;;;;;;;5079586;28;20636;-71
2021/01/10 03:46:51;;;;;;;20.63;7.63;;;;;;;;;;5070663;28;20220;-71
2021/01/10 03:49:17;;;;;;;16.27;6.17;;;;;;;;;;5086400;28;20207;-71
2021/01/10 03:51:42;;;;;;;20.03;5.87;;;;;;;;;;5082507;28;20183;-70
2021/01/10 03:54:08;;;;;;;15.47;6.03;;;;;;;;;;5087856;28;20192;-70
2021/01/10 03:56:33;;;;;;;21.43;5.87;;;;;;;;;;5079991;28;20597;-70
2021/01/10 03:58:59;;;;;;;16.23;5.73;;;;;;;;;;5084865;28;21510;-70
2021/01/10 04:01:24;;;;;;;20.07;6.77;;;;;;;;;;5061578;28;20195;-70
2021/01/10 04:03:49;;;;;;;14.17;6.50;;;;;;;;;;5085809;28;20536;-71
2021/01/10 04:06:14;;;;;;;27.20;7.00;;;;;;;;;;5077657;28;20729;-70
2021/01/10 04:08:40;;;;;;;20.47;6.57;;;;;;;;;;5085419;28;20207;-70
2021/01/10 04:11:05;;;;;;;19.27;5.47;;;;;;;;;;5081304;28;20231;-71
2021/01/10 04:13:30;;;;;;;18.67;5.77;;;;;;;;;;5084484;28;20270;-70
2021/01/10 04:15:56;;;;;;;20.97;5.20;;;;;;;;;;5062605;28;20266;-70
2021/01/10 04:18:21;;;;;;;13.40;5.83;;;;;;;;;;5085783;28;20234;-70
2021/01/10 04:20:46;;;;;;;13.33;5.20;;;;;;;;;;5088445;28;20184;-70
2021/01/10 04:23:12;;;;;;;9.27;4.77;;;;;;;;;;5078026;28;20196;-70
2021/01/10 04:25:37;;;;;;;19.03;5.93;;;;;;;;;;5085292;28;20187;-70
2021/01/10 04:28:03;;;;;;;13.40;5.50;;;;;;;;;;5076637;28;20229;-70
2021/01/10 04:30:28;;;;;;;17.70;6.57;;;;;;;;;;5087621;28;20184;-70
2021/01/10 04:32:53;;;;;;;22.87;5.63;;;;;;;;;;5078046;28;20187;-70
2021/01/10 04:35:19;;;;;;;22.60;6.33;;;;;;;;;;5087319;28;20703;-70
2021/01/10 04:37:44;;;;;;;23.33;6.80;;;;;;;;;;5076235;28;20289;-70
2021/01/10 04:40:10;;;;;;;20.93;6.00;;;;;;;;;;5088132;28;20195;-70
2021/01/10 04:42:37;;;;;;;17.93;6.37;;;;;;;;;;5078502;28;20183;-70
2021/01/10 04:45:03;;;;;;;16.93;5.77;;;;;;;;;;5088247;28;20547;-70
2021/01/10 04:47:28;;;;;;;20.33;6.40;;;;;;;;;;5076504;28;20192;-70
2021/01/10 04:49:54;;;;;;;19.57;6.63;;;;;;;;;;5088271;28;20230;-70
2021/01/10 04:52:20;;;;;;;22.40;7.43;;;;;;;;;;5084231;28;20651;-70
2021/01/10 04:54:49;;;;;;;24.87;8.50;;;;;;;;;;5078873;28;20786;-70
2021/01/10 04:57:19;;;;;;;20.90;8.33;;;;;;;;;;5082977;28;20210;-70
2021/01/10 04:59:44;;;;;;;20.47;8.17;;;;;;;;;;5078025;28;20214;-70
2021/01/10 05:02:10;;;;;;;17.43;7.70;;;;;;;;;;5085415;28;20192;-70
2021/01/10 05:04:36;;;;;;;17.13;6.90;;;;;;;;;;5078683;28;20188;-70
2021/01/10 05:07:03;;;;;;;19.87;7.23;;;;;;;;;;5068332;28;20573;-70
2021/01/10 05:09:28;;;;;;;19.40;6.80;;;;;;;;;;5079727;28;20180;-70
2021/01/10 05:11:54;;;;;;;22.23;8.37;;;;;;;;;;5086349;28;20598;-70
2021/01/10 05:14:20;;;;;;;21.33;6.73;;;;;;;;;;5075254;28;20195;-70
2021/01/10 05:16:46;;;;;;;17.07;6.70;;;;;;;;;;5085818;28;20196;-70
2021/01/10 05:19:11;;;;;;;15.37;7.23;;;;;;;;;;5079889;28;20199;-70
2021/01/10 05:21:40;;;;;;;17.10;7.17;;;;;;;;;;5085675;28;20539;-70
2021/01/10 05:24:06;;;;;;;25.33;7.83;;;;;;;;;;5081623;28;20176;-71
2021/01/10 05:26:33;;;;;;;17.60;7.30;;;;;;;;;;5081323;28;20224;-70
2021/01/10 05:29:04;;;;;;;17.20;7.87;;;;;;;;;;5089975;28;20199;-70
2021/01/10 05:31:32;;;;;;;22.53;8.40;;;;;;;;;;5076063;28;20188;-70
2021/01/10 05:33:57;;;;;;;18.67;8.07;;;;;;;;;;5087837;28;20195;-70
2021/01/10 05:36:28;;;;;;;20.67;7.70;;;;;;;;;;5076124;28;20192;-75
2021/01/10 05:38:54;;;;;;;23.80;8.20;;;;;;;;;;5082340;28;20306;-70
2021/01/10 05:41:21;;;;;;;18.97;8.57;;;;;;;;;;5077075;28;20605;-70
2021/01/10 05:44:04;;;;;;;17.10;8.17;;;;;;;;;;5083887;28;20187;-69
2021/01/10 05:46:31;;;;;;;18.63;8.00;;;;;;;;;;5077309;28;20195;-69
2021/01/10 05:48:58;;;;;;;20.80;9.30;;;;;;;;;;5087594;28;20187;-69
2021/01/10 05:51:28;;;;;;;21.73;9.70;;;;;;;;;;5056078;28;20184;-69
2021/01/10 05:53:54;;;;;;;30.47;10.43;;;;;;;;;;5085450;28;20180;-69
2021/01/10 05:56:19;;;;;;;22.20;10.40;;;;;;;;;;5076707;28;20188;-69
2021/01/10 05:58:53;;;;;;;26.57;9.13;;;;;;;;;;5084153;28;20295;-69
2021/01/10 06:01:20;;;;;;;18.80;9.80;;;;;;;;;;5076217;28;20191;-69
2021/01/10 06:03:46;;;;;;;20.17;9.80;;;;;;;;;;5085265;28;20180;-70
2021/01/10 06:06:12;;;;;;;22.20;9.57;;;;;;;;;;5078134;28;20731;-70
2021/01/10 06:08:38;;;;;;;18.50;10.47;;;;;;;;;;5081847;28;20188;-69
2021/01/10 06:11:18;;;;;;;19.00;10.77;;;;;;;;;;5088495;28;20655;-69
2021/01/10 06:13:50;;;;;;;15.77;9.07;;;;;;;;;;5081474;28;20568;-69
2021/01/10 06:16:17;;;;;;;29.63;11.67;;;;;;;;;;5090103;28;20172;-69
2021/01/10 06:18:52;;;;;;;25.90;11.83;;;;;;;;;;5079492;28;20207;-69
2021/01/10 06:21:20;;;;;;;26.87;11.30;;;;;;;;;;5090014;28;20175;-69
2021/01/10 06:23:49;;;;;;;22.70;12.33;;;;;;;;;;5079534;28;20287;-69
2021/01/10 06:26:20;;;;;;;23.00;11.93;;;;;;;;;;5090463;28;20520;-69
2021/01/10 06:28:51;;;;;;;24.40;13.07;;;;;;;;;;5079243;28;20176;-69
2021/01/10 06:31:21;;;;;;;27.60;12.53;;;;;;;;;;4385670;28;10000828;-69
2021/01/10 06:33:53;;;;;;;22.50;13.27;;;;;;;;;;5072238;28;20198;-69
2021/01/10 06:36:21;;;;;;;21.33;12.77;;;;;;;;;;5083964;28;21181;-69
2021/01/10 06:38:51;;;;;;;32.10;13.00;;;;;;;;;;5073666;28;20277;-69
2021/01/10 06:41:35;;;;;;;27.50;14.33;;;;;;;;;;5082217;28;20283;-69
2021/01/10 06:44:05;;;;;;;26.00;12.90;;;;;;;;;;5052030;28;20607;-69
2021/01/10 06:46:31;;;;;;;29.23;14.43;;;;;;;;;;5084953;28;20242;-69
2021/01/10 06:48:57;;;;;;;25.47;13.80;;;;;;;;;;5073346;28;20532;-69
2021/01/10 06:51:25;;;;;;;22.63;13.70;;;;;;;;;;5066860;28;20184;-69
2021/01/10 06:53:51;;;;;;;26.53;14.57;;;;;;;;;;5071840;28;20188;-69
2021/01/10 06:56:17;;;;;;;23.10;13.67;;;;;;;;;;5083228;28;20188;-69
2021/01/10 06:59:03;;;;;;;28.03;14.07;;;;;;;;;;5075334;28;20638;-69
2021/01/10 07:01:51;;;;;;;22.07;12.73;;;;;;;;;;5081626;28;20943;-69
2021/01/10 07:04:22;;;;;;;29.57;13.33;;;;;;;;;;5075631;28;24969;-69
2021/01/10 07:06:48;;;;;;;25.90;14.27;;;;;;;;;;5076702;28;20286;-69
2021/01/10 07:09:14;;;;;;;27.63;15.40;;;;;;;;;;5081545;28;20604;-69
2021/01/10 07:11:40;;;;;;;28.60;16.70;;;;;;;;;;5080782;28;20241;-69
2021/01/10 07:14:06;;;;;;;35.17;16.90;;;;;;;;;;5086088;28;20184;-70
2021/01/10 07:16:33;;;;;;;36.90;16.63;;;;;;;;;;5076392;28;20234;-69
2021/01/10 07:19:04;;;;;;;28.30;16.47;;;;;;;;;;5082134;28;20294;-69
2021/01/10 07:21:33;;;;;;;34.17;16.50;;;;;;;;;;5076115;28;20187;-69
2021/01/10 07:24:19;;;;;;;34.70;17.57;;;;;;;;;;5086082;28;20182;-69
2021/01/10 07:26:59;;;;;;;29.60;16.03;;;;;;;;;;5074310;28;20531;-69
2021/01/10 07:29:32;;;;;;;37.30;17.50;;;;;;;;;;5088333;28;20183;-69
2021/01/10 07:32:02;;;;;;;32.97;18.07;;;;;;;;;;5072230;28;20188;-69
2021/01/10 07:34:28;;;;;;;32.37;18.30;;;;;;;;;;5083727;28;20180;-69
2021/01/10 07:36:56;;;;;;;32.97;17.37;;;;;;;;;;5074498;28;20234;-69
2021/01/10 07:39:29;;;;;;;28.00;16.03;;;;;;;;;;5087770;28;20719;-69
2021/01/10 07:42:12;;;;;;;34.70;18.07;;;;;;;;;;5073748;28;20188;-69
2021/01/10 07:45:16;;;;;;;28.17;16.13;;;;;;;;;;5082165;28;20212;-69
2021/01/10 07:47:45;;;;;;;32.43;17.97;;;;;;;;;;5074625;28;20261;-69
2021/01/10 07:50:16;;;;;;;29.43;17.60;;;;;;;;;;5082404;28;20185;-69
2021/01/10 07:52:41;;;;;;;32.30;16.67;;;;;;;;;;5074259;28;20192;-70
2021/01/10 07:55:22;;;;;;;31.80;16.27;;;;;;;;;;5086339;28;20188;-69
2021/01/10 07:57:49;;;;;;;34.60;17.03;;;;;;;;;;5056151;28;20260;-70
2021/01/10 08:00:24;;;;;;;28.70;16.53;;;;;;;;;;5082609;28;20627;-69
2021/01/10 08:03:05;;;;;;;25.47;16.10;;;;;;;;;;5075402;28;20191;-69
2021/01/10 08:05:30;;;;;;;27.83;15.80;;;;;;;;;;5081304;28;20222;-69
2021/01/10 08:08:06;;;;;;;33.30;15.40;;;;;;;;;;5076864;28;20557;-70
2021/01/10 08:10:51;;;;;;;26.83;14.83;;;;;;;;;;5080144;28;20183;-69
2021/01/10 08:13:25;;;;;;;27.37;14.70;;;;;;;;;;5050368;28;20682;-70
2021/01/10 08:15:51;;;;;;;30.50;14.73;;;;;;;;;;5080704;28;20332;-70
2021/01/10 08:18:20;;;;;;;22.93;13.47;;;;;;;;;;5077013;28;20287;-70
2021/01/10 08:20:49;;;;;;;24.53;14.00;;;;;;;;;;5067096;28;20215;-70
2021/01/10 08:23:16;;;;;;;29.73;14.27;;;;;;;;;;5077269;28;20744;-70
2021/01/10 08:25:41;;;;;;;29.47;13.93;;;;;;;;;;5082595;28;20184;-70
2021/01/10 08:28:06;;;;;;;34.43;15.20;;;;;;;;;;5084891;28;20682;-71
2021/01/10 08:30:33;;;;;;;23.30;12.73;;;;;;;;;;5057528;28;20184;-71
2021/01/10 08:32:58;;;;;;;23.37;13.00;;;;;;;;;;5085338;28;20259;-70
2021/01/10 08:35:23;;;;;;;21.43;13.43;;;;;;;;;;5076316;28;20336;-70
2021/01/10 08:37:49;;;;;;;26.97;13.83;;;;;;;;;;5073796;28;20240;-70
2021/01/10 08:40:14;;;;;;;33.90;14.13;;;;;;;;;;5074111;28;20214;-70
2021/01/10 08:42:41;;;;;;;24.77;14.43;;;;;;;;;;5085248;28;20683;-71
2021/01/10 08:45:18;;;;;;;27.87;13.77;;;;;;;;;;5075594;28;20267;-71
2021/01/10 08:47:44;;;;;;;24.63;13.27;;;;;;;;;;5086196;28;20231;-71
2021/01/10 08:50:10;;;;;;;27.27;13.73;;;;;;;;;;5073739;28;20643;-71
2021/01/10 08:52:53;;;;;;;30.77;14.23;;;;;;;;;;5065564;28;20206;-71
2021/01/10 08:55:39;;;;;;;28.87;13.97;;;;;;;;;;5073828;28;21529;-70
2021/01/10 08:58:07;;;;;;;25.63;13.97;;;;;;;;;;5082308;28;20183;-70
2021/01/10 09:00:39;;;;;;;30.57;15.13;;;;;;;;;;5073697;28;20195;-71
2021/01/10 09:03:16;;;;;;;21.30;13.67;;;;;;;;;;5086884;28;20188;-71
2021/01/10 09:05:44;;;;;;;25.77;13.60;;;;;;;;;;5076148;28;20210;-71
2021/01/10 09:08:30;;;;;;;22.60;13.07;;;;;;;;;;5085919;28;20184;-71
2021/01/10 09:11:05;;;;;;;26.20;12.77;;;;;;;;;;5079135;28;20271;-71
2021/01/10 09:13:33;;;;;;;20.57;11.27;;;;;;;;;;5084087;28;20187;-70
2021/01/10 09:16:00;;;;;;;19.87;13.43;;;;;;;;;;5081134;28;22211;-71
2021/01/10 09:18:28;;;;;;;23.87;12.00;;;;;;;;;;5066047;28;20208;-70
2021/01/10 09:21:01;;;;;;;21.37;11.83;;;;;;;;;;5068589;28;20192;-70
2021/01/10 09:23:27;;;;;;;19.70;10.90;;;;;;;;;;5084476;28;20196;-71
2021/01/10 09:25:52;;;;;;;19.83;11.77;;;;;;;;;;5085181;28;20192;-71
2021/01/10 09:28:20;;;;;;;24.03;11.23;;;;;;;;;;5077211;28;20541;-70
2021/01/10 09:30:54;;;;;;;16.50;10.73;;;;;;;;;;5086744;28;20333;-70
2021/01/10 09:33:26;;;;;;;21.63;10.27;;;;;;;;;;5077054;28;20188;-70
2021/01/10 09:35:53;;;;;;;23.27;11.10;;;;;;;;;;5086602;28;20322;-70
2021/01/10 09:38:20;;;;;;;22.20;11.50;;;;;;;;;;5076198;28;20262;-70
2021/01/10 09:41:06;;;;;;;16.50;10.90;;;;;;;;;;5086504;28;20215;-70
2021/01/10 09:43:40;;;;;;;20.90;10.47;;;;;;;;;;5075981;28;20191;-70
2021/01/10 09:46:25;;;;;;;23.90;11.73;;;;;;;;;;5086759;28;20205;-71
2021/01/10 09:48:52;;;;;;;22.30;11.03;;;;;;;;;;5071595;28;20188;-70
2021/01/10 09:51:18;;;;;;;20.90;11.53;;;;;;;;;;5085894;28;20199;-71
2021/01/10 09:53:47;;;;;;;24.03;11.43;;;;;;;;;;5076430;28;20195;-71
2021/01/10 09:56:33;;;;;;;18.87;11.27;;;;;;;;;;5065756;28;20184;-72
2021/01/10 09:58:59;;;;;;;19.23;10.53;;;;;;;;;;5062147;28;20242;-71
2021/01/10 10:01:36;;;;;;;21.27;11.77;;;;;;;;;;5086103;28;20192;-71
2021/01/10 10:04:01;;;;;;;18.67;11.30;;;;;;;;;;5077835;28;20705;-70
2021/01/10 10:06:26;;;;;;;15.90;10.67;;;;;;;;;;5083375;28;20230;-71
2021/01/10 10:08:55;;;;;;;16.67;9.73;;;;;;;;;;5077190;28;20195;-71
2021/01/10 10:11:20;;;;;;;21.23;11.33;;;;;;;;;;5081578;28;20233;-71
2021/01/10 10:13:46;;;;;;;18.47;10.57;;;;;;;;;;5057874;28;20188;-71
2021/01/10 10:16:17;;;;;;;19.47;10.40;;;;;;;;;;5082118;28;20203;-71
2021/01/10 10:18:43;;;;;;;17.37;9.97;;;;;;;;;;5078130;28;20199;-71
2021/01/10 10:21:08;;;;;;;16.33;10.00;;;;;;;;;;5081906;28;20550;-71
2021/01/10 10:23:33;;;;;;;16.50;10.40;;;;;;;;;;5085734;28;20546;-71
2021/01/10 10:25:59;;;;;;;17.57;9.80;;;;;;;;;;5074758;28;20551;-71
2021/01/10 10:28:24;;;;;;;19.17;10.60;;;;;;;;;;5087002;28;20618;-71
2021/01/10 10:30:49;;;;;;;18.43;10.53;;;;;;;;;;5074169;28;20193;-71
2021/01/10 10:33:16;;;;;;;18.00;9.73;;;;;;;;;;5087527;28;20627;-71
2021/01/10 10:35:42;;;;;;;20.30;10.13;;;;;;;;;;5074452;28;20195;-71
2021/01/10 10:38:07;;;;;;;20.40;10.40;;;;;;;;;;5086999;28;20582;-71
2021/01/10 10:40:33;;;;;;;20.87;10.40;;;;;;;;;;5076895;28;20184;-71
2021/01/10 10:42:59;;;;;;;15.23;9.00;;;;;;;;;;5086309;28;20184;-71
2021/01/10 10:45:25;;;;;;;16.57;9.90;;;;;;;;;;5074649;28;20191;-71
2021/01/10 10:47:51;;;;;;;21.33;10.67;;;;;;;;;;5087229;28;20203;-71
2021/01/10 10:50:17;;;;;;;17.07;10.23;;;;;;;;;;5075466;28;20180;-71
2021/01/10 10:52:42;;;;;;;20.40;10.10;;;;;;;;;;5084390;28;20180;-71
2021/01/10 10:55:09;;;;;;;18.47;10.03;;;;;;;;;;5087635;28;20569;-71
2021/01/10 10:57:35;;;;;;;13.97;9.23;;;;;;;;;;5080460;28;20549;-71
2021/01/10 11:00:03;;;;;;;16.87;9.93;;;;;;;;;;5084015;28;20204;-71
2021/01/10 11:02:44;;;;;;;15.13;9.40;;;;;;;;;;4829782;28;10000375;-71
2021/01/10 11:05:10;;;;;;;18.87;9.53;;;;;;;;;;5074915;28;20791;-71
2021/01/10 11:07:36;;;;;;;19.90;9.67;;;;;;;;;;5066109;28;20199;-71
2021/01/10 11:10:03;;;;;;;16.67;9.17;;;;;;;;;;5075517;28;20192;-71
2021/01/10 11:12:32;;;;;;;21.83;10.37;;;;;;;;;;5066025;28;20568;-71
2021/01/10 11:14:57;;;;;;;16.53;9.60;;;;;;;;;;5074265;28;20250;-71
2021/01/10 11:17:22;;;;;;;18.93;10.07;;;;;;;;;;5066760;28;20904;-71
2021/01/10 11:19:48;;;;;;;17.20;9.77;;;;;;;;;;5073622;28;20192;-71
2021/01/10 11:22:13;;;;;;;16.80;8.80;;;;;;;;;;5066917;28;20201;-71
2021/01/10 11:24:39;;;;;;;16.03;8.90;;;;;;;;;;5059077;28;20192;-71
2021/01/10 11:27:04;;;;;;;17.77;9.43;;;;;;;;;;5052289;28;20235;-71
2021/01/10 11:29:31;;;;;;;18.33;9.57;;;;;;;;;;5073228;28;20180;-72
2021/01/10 11:31:56;;;;;;;18.10;10.13;;;;;;;;;;5074864;28;20200;-71
2021/01/10 11:34:22;;;;;;;17.27;11.60;;;;;;;;;;5046909;28;20277;-71
2021/01/10 11:36:50;;;;;;;18.90;10.97;;;;;;;;;;5074381;28;20259;-72
2021/01/10 11:39:16;;;;;;;20.57;10.87;;;;;;;;;;5045523;28;20609;-72
2021/01/10 11:41:48;;;;;;;18.17;10.70;;;;;;;;;;5075162;28;20192;-70
2021/01/10 11:44:13;;;;;;;18.60;10.37;;;;;;;;;;5067075;28;20187;-73
2021/01/10 11:46:44;;;;;;;19.00;10.00;;;;;;;;;;5072312;28;20249;-73
2021/01/10 11:49:10;;;;;;;14.33;9.97;;;;;;;;;;5065749;28;20671;-71
2021/01/10 11:51:35;;;;;;;18.23;9.17;;;;;;;;;;5075203;28;20601;-71
2021/01/10 11:54:01;;;;;;;14.80;9.67;;;;;;;;;;5065093;28;20260;-72
2021/01/10 11:56:26;;;;;;;15.90;9.53;;;;;;;;;;5075821;28;20660;-72
2021/01/10 11:58:51;;;;;;;18.87;9.30;;;;;;;;;;5063301;28;20573;-71
2021/01/10 12:01:17;;;;;;;16.17;9.30;;;;;;;;;;5076356;28;20605;-73
2021/01/10 12:03:48;;;;;;;18.37;9.83;;;;;;;;;;5073308;28;20180;-72
2021/01/10 12:06:18;;;;;;;19.67;10.23;;;;;;;;;;5066042;28;20200;-71
2021/01/10 12:08:44;;;;;;;19.83;10.07;;;;;;;;;;5074790;28;21249;-72
2021/01/10 12:11:13;;;;;;;14.17;8.73;;;;;;;;;;5062925;28;20223;-71
2021/01/10 12:13:39;;;;;;;22.10;9.40;;;;;;;;;;5072566;28;20192;-71
2021/01/10 12:16:04;;;;;;;16.90;9.60;;;;;;;;;;5064428;28;20697;-73
2021/01/10 12:18:30;;;;;;;17.17;9.03;;;;;;;;;;5058460;28;20563;-72
2021/01/10 12:20:55;;;;;;;18.13;10.37;;;;;;;;;;5066495;28;20226;-72
2021/01/10 12:23:20;;;;;;;21.70;9.60;;;;;;;;;;5076170;28;20207;-72
2021/01/10 12:25:46;;;;;;;14.73;9.63;;;;;;;;;;5066657;28;20282;-72
2021/01/10 12:28:12;;;;;;;14.03;8.60;;;;;;;;;;5070530;28;20243;-72
2021/01/10 12:30:38;;;;;;;16.00;9.60;;;;;;;;;;5058752;28;20222;-72
2021/01/10 12:33:04;;;;;;;15.53;9.37;;;;;;;;;;5058154;28;20195;-72
2021/01/10 12:35:29;;;;;;;18.53;8.63;;;;;;;;;;5062351;28;20271;-73
2021/01/10 12:37:54;;;;;;;15.70;8.87;;;;;;;;;;5052453;28;20326;-72
2021/01/10 12:40:20;;;;;;;15.40;9.30;;;;;;;;;;5076911;28;20207;-72
2021/01/10 12:42:47;;;;;;;15.00;8.70;;;;;;;;;;5066205;28;20579;-72
2021/01/10 12:45:13;;;;;;;15.07;9.23;;;;;;;;;;5075844;28;20199;-72
2021/01/10 12:47:43;;;;;;;20.07;9.53;;;;;;;;;;5066443;28;20726;-72
2021/01/10 12:50:10;;;;;;;15.80;10.07;;;;;;;;;;5076061;28;20219;-72
2021/01/10 12:52:37;;;;;;;13.67;8.70;;;;;;;;;;5060786;28;20188;-72
2021/01/10 12:55:04;;;;;;;17.57;8.67;;;;;;;;;;5057047;28;20222;-72
2021/01/10 12:57:29;;;;;;;17.27;9.80;;;;;;;;;;5070032;28;20199;-72
2021/01/10 12:59:54;;;;;;;14.10;9.13;;;;;;;;;;5074659;28;20611;-72
2021/01/10 13:02:19;;;;;;;11.60;7.20;;;;;;;;;;5068317;28;20204;-72
2021/01/10 13:04:45;;;;;;;12.47;8.50;;;;;;;;;;5063494;28;20191;-72
2021/01/10 13:07:10;;;;;;;12.47;7.83;;;;;;;;;;5074854;28;20265;-72
2021/01/10 13:09:36;;;;;;;15.00;7.67;;;;;;;;;;5066520;28;20180;-72
2021/01/10 13:12:03;;;;;;;14.60;8.17;;;;;;;;;;5075986;28;20196;-73
2021/01/10 13:14:28;;;;;;;13.50;8.27;;;;;;;;;;5048289;28;20183;-73
2021/01/10 13:16:53;;;;;;;19.17;7.97;;;;;;;;;;5080423;28;20188;-73
2021/01/10 13:19:20;;;;;;;11.70;7.50;;;;;;;;;;5074259;28;20204;-72
2021/01/10 13:21:45;;;;;;;15.00;7.90;;;;;;;;;;5074857;28;20187;-73
2021/01/10 13:24:11;;;;;;;14.13;7.93;;;;;;;;;;5065367;28;20187;-72
2021/01/10 13:26:37;;;;;;;13.03;7.67;;;;;;;;;;5074188;28;20188;-72
2021/01/10 13:29:03;;;;;;;11.60;8.00;;;;;;;;;;5068121;28;20196;-72
2021/01/10 13:31:33;;;;;;;15.47;7.40;;;;;;;;;;5076792;28;20184;-72
2021/01/10 13:33:58;;;;;;;10.77;7.50;;;;;;;;;;5066017;28;22375;-73
2021/01/10 13:36:23;;;;;;;13.43;7.50;;;;;;;;;;5078075;28;20200;-72
2021/01/10 13:38:49;;;;;;;15.77;8.17;;;;;;;;;;5073807;28;20236;-72
2021/01/10 13:41:15;;;;;;;14.13;7.93;;;;;;;;;;5068078;28;20187;-72
2021/01/10 13:43:41;;;;;;;11.17;7.13;;;;;;;;;;5074845;28;20184;-72
2021/01/10 13:46:13;;;;;;;12.73;7.20;;;;;;;;;;5066552;28;20740;-72
2021/01/10 13:48:42;;;;;;;12.20;7.00;;;;;;;;;;5075172;28;20222;-73
2021/01/10 13:51:24;;;;;;;16.10;7.20;;;;;;;;;;5069415;28;20665;-72
2021/01/10 13:53:49;;;;;;;11.93;6.93;;;;;;;;;;5058810;28;20227;-70
2021/01/10 13:56:23;;;;;;;10.90;7.20;;;;;;;;;;5067441;28;20242;-75
2021/01/10 13:58:50;;;;;;;13.70;6.73;;;;;;;;;;5075786;28;20766;-71
2021/01/10 14:01:16;;;;;;;9.07;6.23;;;;;;;;;;5055715;28;20198;-70
2021/01/10 14:03:41;;;;;;;13.03;7.13;;;;;;;;;;5075006;28;20200;-70
2021/01/10 14:06:17;;;;;;;16.93;7.33;;;;;;;;;;5068071;28;20210;-71
2021/01/10 14:08:42;;;;;;;11.40;6.33;;;;;;;;;;5074846;28;20187;-70
2021/01/10 14:11:08;;;;;;;11.80;6.57;;;;;;;;;;5066107;28;20195;-70
2021/01/10 14:13:33;;;;;;;14.27;6.90;;;;;;;;;;5074822;28;20183;-70
2021/01/10 14:15:58;;;;;;;12.07;7.03;;;;;;;;;;5078968;28;20248;-71
2021/01/10 14:18:24;;;;;;;10.60;6.10;;;;;;;;;;5082535;28;20620;-71
2021/01/10 14:20:49;;;;;;;10.13;6.57;;;;;;;;;;5086404;28;20234;-71
2021/01/10 14:23:14;;;;;;;11.40;6.30;;;;;;;;;;5075713;28;20196;-71
2021/01/10 14:25:45;;;;;;;13.33;6.60;;;;;;;;;;5085114;28;20746;-71
2021/01/10 14:28:12;;;;;;;11.93;6.63;;;;;;;;;;5058126;28;20188;-71
2021/01/10 14:30:38;;;;;;;13.60;6.70;;;;;;;;;;5092449;28;20540;-71
2021/01/10 14:33:04;;;;;;;10.63;6.60;;;;;;;;;;5081596;28;20183;-71